Time;durP1;ratioP1;P1;durP2;ratioP2;P2;SDS_P1;SDS_P2;PMS_P1;PMS_P2;Temp;Humidity;BMP_temperature;BMP_pressure;BME280_temperature;BME280_humidity;BME280_pressure;Samples;Min_cycle;Max_cycle;Signal;HPM_P1;HPM_P2
2022/04/10 00:01:28;;;;;;;2.90;1.60;;;7.20;78.60;;;;;;5031873;28;20044;-86
2022/04/10 00:03:53;;;;;;;3.28;1.92;;;7.20;78.70;;;;;;5057718;28;20317;-86
2022/04/10 00:06:19;;;;;;;2.50;1.80;;;7.20;78.70;;;;;;5025456;28;20021;-87
2022/04/10 00:08:45;;;;;;;3.23;2.13;;;7.30;78.80;;;;;;5056058;28;20508;-86
2022/04/10 00:11:10;;;;;;;3.03;1.80;;;7.20;78.80;;;;;;5044502;28;20541;-86
2022/04/10 00:13:37;;;;;;;3.20;1.70;;;7.30;78.70;;;;;;5053540;28;20117;-86
2022/04/10 00:16:03;;;;;;;2.90;1.80;;;7.30;78.70;;;;;;5033589;28;20131;-87
2022/04/10 00:18:29;;;;;;;3.03;1.90;;;7.30;78.70;;;;;;5056445;28;20029;-87
2022/04/10 00:20:55;;;;;;;3.38;1.98;;;7.30;78.80;;;;;;5040776;28;20397;-87
2022/04/10 00:23:20;;;;;;;2.60;1.57;;;7.30;78.80;;;;;;5040190;28;20063;-87
2022/04/10 00:25:46;;;;;;;3.30;2.10;;;7.30;78.90;;;;;;5040000;28;20335;-87
2022/04/10 00:28:11;;;;;;;3.10;1.90;;;7.30;78.90;;;;;;5044984;28;20512;-87
2022/04/10 00:30:37;;;;;;;3.72;1.83;;;7.30;79.00;;;;;;5045732;28;20131;-87
2022/04/10 00:33:03;;;;;;;3.70;1.90;;;7.30;79.00;;;;;;5040055;28;20032;-87
2022/04/10 00:35:28;;;;;;;3.30;1.95;;;7.40;79.20;;;;;;5035633;28;20021;-87
2022/04/10 00:37:54;;;;;;;3.23;1.90;;;7.30;79.30;;;;;;5029819;28;20241;-87
2022/04/10 00:40:20;;;;;;;3.33;1.77;;;7.30;79.30;;;;;;5054673;28;20419;-87
2022/04/10 00:42:49;;;;;;;3.13;1.90;;;7.30;79.40;;;;;;5022609;28;20664;-87
2022/04/10 00:45:16;;;;;;;2.95;1.63;;;7.30;79.40;;;;;;5056748;28;20036;-87
2022/04/10 00:47:44;;;;;;;3.42;1.80;;;7.40;79.60;;;;;;5026203;28;20187;-87
2022/04/10 00:50:12;;;;;;;3.33;2.10;;;7.30;79.60;;;;;;5040576;28;20020;-87
2022/04/10 00:52:38;;;;;;;2.80;1.90;;;7.40;79.70;;;;;;5022276;28;20115;-87
2022/04/10 00:55:05;;;;;;;2.55;1.50;;;7.40;79.80;;;;;;5056686;28;20029;-87
2022/04/10 00:57:31;;;;;;;2.58;1.77;;;7.40;79.80;;;;;;5041723;28;20043;-87
2022/04/10 00:59:56;;;;;;;2.72;1.90;;;7.40;79.80;;;;;;5039167;28;20032;-87
2022/04/10 01:02:22;;;;;;;2.80;1.70;;;7.40;79.80;;;;;;5049119;28;20021;-87
2022/04/10 01:04:48;;;;;;;3.13;1.98;;;7.40;79.80;;;;;;5042037;28;20229;-87
2022/04/10 01:07:16;;;;;;;3.57;1.90;;;7.30;79.70;;;;;;5038780;28;20028;-87
2022/04/10 01:09:42;;;;;;;3.17;1.80;;;7.40;79.80;;;;;;5035839;28;20043;-87
2022/04/10 01:12:09;;;;;;;3.50;1.70;;;7.40;79.80;;;;;;5059624;28;20020;-87
2022/04/10 01:14:36;;;;;;;3.47;1.70;;;7.30;79.90;;;;;;5022994;28;20708;-87
2022/04/10 01:17:02;;;;;;;2.50;1.53;;;7.30;79.90;;;;;;5056330;28;20059;-87
2022/04/10 01:19:28;;;;;;;4.10;1.60;;;7.30;79.90;;;;;;5044547;28;20107;-87
2022/04/10 01:21:57;;;;;;;3.85;1.90;;;7.30;80.00;;;;;;5038770;28;20028;-87
2022/04/10 01:24:23;;;;;;;2.85;1.88;;;7.30;80.00;;;;;;5025430;28;20028;-87
2022/04/10 01:26:48;;;;;;;3.00;1.70;;;7.30;80.00;;;;;;5056541;28;20059;-87
2022/04/10 01:29:15;;;;;;;2.38;1.70;;;7.30;80.10;;;;;;5025906;28;20032;-87
2022/04/10 01:31:46;;;;;;;2.97;1.87;;;7.20;80.20;;;;;;5036315;28;20197;-87
2022/04/10 01:34:16;;;;;;;3.00;1.73;;;7.30;80.30;;;;;;5036044;28;20032;-87
2022/04/10 01:36:44;;;;;;;3.67;1.80;;;7.20;80.30;;;;;;5054703;28;20029;-87
2022/04/10 01:39:11;;;;;;;4.07;2.00;;;7.20;80.30;;;;;;5024034;28;20067;-87
2022/04/10 01:41:37;;;;;;;3.40;1.80;;;7.30;80.40;;;;;;5054609;28;20028;-87
2022/04/10 01:44:07;;;;;;;3.77;1.73;;;7.20;80.20;;;;;;5041168;28;20036;-87
2022/04/10 01:46:34;;;;;;;3.80;2.13;;;7.20;80.20;;;;;;5025361;28;20032;-87
2022/04/10 01:48:59;;;;;;;3.00;1.77;;;7.20;80.10;;;;;;5039891;28;20032;-87
2022/04/10 01:51:25;;;;;;;2.80;1.70;;;7.10;79.70;;;;;;5047563;28;20032;-87
2022/04/10 01:53:53;;;;;;;4.15;1.98;;;7.10;79.70;;;;;;5023526;28;20029;-87
2022/04/10 01:56:19;;;;;;;3.00;1.90;;;7.00;79.50;;;;;;5057544;28;20536;-87
2022/04/10 01:58:46;;;;;;;3.50;2.00;;;7.00;79.30;;;;;;5035191;28;20703;-87
2022/04/10 02:01:14;;;;;;;3.70;2.00;;;6.90;79.10;;;;;;5041234;28;20425;-87
2022/04/10 02:03:40;;;;;;;3.80;2.08;;;6.80;79.00;;;;;;5051766;28;20139;-87
2022/04/10 02:06:08;;;;;;;3.45;2.00;;;6.80;78.90;;;;;;5031101;28;20036;-87
2022/04/10 02:08:37;;;;;;;2.80;1.65;;;6.70;78.90;;;;;;5040149;28;20028;-87
2022/04/10 02:11:14;;;;;;;2.90;1.83;;;6.60;79.00;;;;;;5055814;28;20024;-87
2022/04/10 02:13:40;;;;;;;3.53;1.80;;;6.50;79.00;;;;;;5035460;28;20145;-87
2022/04/10 02:16:08;;;;;;;3.67;1.80;;;6.40;78.90;;;;;;5022403;28;20496;-87
2022/04/10 02:18:34;;;;;;;2.78;1.67;;;6.40;79.00;;;;;;5032141;28;20724;-88
2022/04/10 02:21:00;;;;;;;4.15;1.77;;;6.30;79.00;;;;;;5052640;28;20389;-87
2022/04/10 02:23:26;;;;;;;3.33;1.80;;;6.20;79.00;;;;;;5043021;28;20234;-87
2022/04/10 02:25:51;;;;;;;2.83;1.73;;;6.20;79.10;;;;;;5028038;28;20048;-87
2022/04/10 02:28:17;;;;;;;3.50;2.00;;;6.10;79.00;;;;;;5035526;28;20233;-87
2022/04/10 02:30:42;;;;;;;3.05;1.85;;;6.00;79.00;;;;;;5039118;28;20427;-87
2022/04/10 02:33:08;;;;;;;3.47;1.83;;;6.00;79.10;;;;;;5040655;28;20040;-87
2022/04/10 02:35:34;;;;;;;2.63;1.80;;;5.90;79.10;;;;;;5037016;28;20055;-87
2022/04/10 02:37:59;;;;;;;3.20;1.80;;;5.90;79.20;;;;;;5030189;28;20020;-87
2022/04/10 02:40:25;;;;;;;3.07;1.80;;;5.80;79.20;;;;;;5020776;28;20033;-87
2022/04/10 02:42:51;;;;;;;3.50;1.98;;;5.70;79.30;;;;;;5037702;28;20040;-87
2022/04/10 02:45:16;;;;;;;3.73;1.80;;;5.70;79.70;;;;;;5050351;28;20268;-87
2022/04/10 02:47:42;;;;;;;4.00;1.80;;;5.60;79.40;;;;;;5036864;28;20365;-87
2022/04/10 02:50:08;;;;;;;6.77;2.67;;;5.60;79.40;;;;;;5017899;28;20503;-87
2022/04/10 02:52:34;;;;;;;3.70;1.70;;;5.50;79.40;;;;;;5046170;28;20031;-87
2022/04/10 02:55:00;;;;;;;3.60;1.95;;;5.50;79.40;;;;;;5052318;28;20389;-87
2022/04/10 02:57:26;;;;;;;3.67;1.70;;;5.40;79.50;;;;;;5039382;28;20096;-87
2022/04/10 02:59:51;;;;;;;3.00;1.90;;;5.40;79.60;;;;;;5038038;28;20078;-87
2022/04/10 03:02:17;;;;;;;3.13;1.70;;;5.30;79.60;;;;;;5051485;28;20036;-87
2022/04/10 03:04:43;;;;;;;3.58;1.90;;;5.30;79.70;;;;;;5038881;28;20033;-87
2022/04/10 03:07:08;;;;;;;3.63;1.80;;;5.30;79.70;;;;;;5047745;28;20033;-87
2022/04/10 03:09:34;;;;;;;3.60;1.85;;;5.30;79.90;;;;;;5033309;28;20225;-87
2022/04/10 03:11:59;;;;;;;3.60;1.90;;;5.20;80.70;;;;;;5020741;28;20024;-87
2022/04/10 03:14:25;;;;;;;3.25;1.90;;;5.20;80.10;;;;;;5050110;28;20318;-87
2022/04/10 03:16:51;;;;;;;3.83;1.80;;;5.20;80.20;;;;;;5056088;28;20521;-87
2022/04/10 03:19:16;;;;;;;3.13;1.77;;;5.20;80.30;;;;;;5038787;28;20025;-87
2022/04/10 03:21:42;;;;;;;3.88;2.20;;;5.10;80.40;;;;;;5038569;28;20412;-87
2022/04/10 03:24:08;;;;;;;3.73;1.90;;;5.20;80.60;;;;;;5044041;28;20249;-87
2022/04/10 03:26:34;;;;;;;3.38;1.80;;;5.20;80.70;;;;;;5053919;28;20619;-87
2022/04/10 03:28:59;;;;;;;3.15;1.90;;;5.20;80.80;;;;;;5020100;28;20044;-87
2022/04/10 03:31:25;;;;;;;2.70;1.80;;;5.10;80.80;;;;;;5034442;28;20028;-87
2022/04/10 03:33:51;;;;;;;4.35;2.05;;;5.20;80.90;;;;;;5037982;28;20039;-87
2022/04/10 03:36:17;;;;;;;3.08;1.75;;;5.20;80.90;;;;;;5038041;28;20029;-87
2022/04/10 03:38:43;;;;;;;2.73;1.70;;;5.10;80.80;;;;;;5055021;28;20029;-87
2022/04/10 03:41:09;;;;;;;3.80;1.98;;;5.20;80.80;;;;;;5025894;28;20032;-87
2022/04/10 03:43:34;;;;;;;4.03;2.10;;;5.10;80.80;;;;;;5016114;28;21103;-87
2022/04/10 03:46:00;;;;;;;2.92;1.70;;;5.10;80.70;;;;;;5053363;28;20035;-87
2022/04/10 03:48:26;;;;;;;2.97;1.67;;;5.10;80.70;;;;;;5051641;28;20036;-87
2022/04/10 03:50:52;;;;;;;2.87;1.67;;;5.10;80.60;;;;;;5040718;28;20024;-87
2022/04/10 03:53:18;;;;;;;2.80;1.83;;;5.10;81.40;;;;;;5052159;28;20286;-87
2022/04/10 03:55:43;;;;;;;3.33;1.90;;;5.10;80.70;;;;;;5046629;28;20017;-87
2022/04/10 03:58:09;;;;;;;4.10;2.00;;;5.00;80.60;;;;;;5035429;28;20108;-87
2022/04/10 04:00:35;;;;;;;6.80;2.20;;;5.00;80.60;;;;;;5037843;28;20154;-87
2022/04/10 04:03:01;;;;;;;4.53;2.00;;;5.00;80.70;;;;;;5054004;28;20027;-87
2022/04/10 04:05:27;;;;;;;4.53;2.00;;;5.00;80.80;;;;;;5037333;28;20033;-87
2022/04/10 04:07:53;;;;;;;4.15;2.03;;;4.90;80.70;;;;;;5041117;28;20062;-87
2022/04/10 04:10:19;;;;;;;2.93;1.90;;;4.90;80.80;;;;;;5050362;28;20021;-87
2022/04/10 04:12:44;;;;;;;3.67;1.95;;;4.90;80.80;;;;;;5029371;28;20032;-87
2022/04/10 04:15:11;;;;;;;3.37;1.90;;;4.90;80.90;;;;;;5035935;28;20037;-87
2022/04/10 04:17:37;;;;;;;3.20;1.88;;;4.80;80.80;;;;;;5053648;28;20095;-87
2022/04/10 04:20:05;;;;;;;2.50;1.70;;;4.80;80.80;;;;;;5036335;28;20021;-87
2022/04/10 04:22:31;;;;;;;4.22;2.05;;;4.80;80.70;;;;;;5025966;28;20596;-87
2022/04/10 04:24:57;;;;;;;3.90;2.00;;;4.80;80.70;;;;;;5057377;28;20048;-87
2022/04/10 04:27:22;;;;;;;3.95;2.30;;;4.70;80.60;;;;;;5047609;28;20067;-87
2022/04/10 04:29:48;;;;;;;3.80;1.83;;;4.70;81.40;;;;;;5057976;28;20034;-87
2022/04/10 04:32:14;;;;;;;2.85;1.75;;;4.70;80.60;;;;;;5039255;28;20040;-87
2022/04/10 04:34:39;;;;;;;5.00;1.93;;;4.60;80.60;;;;;;5056435;28;20046;-87
2022/04/10 04:37:05;;;;;;;5.22;2.17;;;4.60;80.60;;;;;;5033935;28;20360;-87
2022/04/10 04:39:31;;;;;;;3.20;1.90;;;4.60;80.80;;;;;;5048600;28;20047;-87
2022/04/10 04:41:56;;;;;;;3.67;1.75;;;4.50;80.60;;;;;;5040782;28;20048;-86
2022/04/10 04:44:23;;;;;;;3.90;2.00;;;4.50;80.80;;;;;;5046322;28;20052;-87
2022/04/10 04:46:48;;;;;;;3.97;1.90;;;4.50;80.80;;;;;;5041551;28;20039;-87
2022/04/10 04:49:14;;;;;;;3.53;1.80;;;4.40;80.80;;;;;;5054869;28;20032;-86
2022/04/10 04:51:40;;;;;;;3.40;1.80;;;4.40;80.90;;;;;;5040150;28;20024;-87
2022/04/10 04:54:09;;;;;;;5.27;2.30;;;4.40;81.00;;;;;;5023686;28;20058;-87
2022/04/10 04:56:35;;;;;;;3.13;1.90;;;4.30;80.90;;;;;;5040109;28;20333;-87
2022/04/10 04:59:00;;;;;;;4.00;2.00;;;4.30;81.00;;;;;;5030509;28;20024;-87
2022/04/10 05:01:26;;;;;;;3.37;1.90;;;4.30;81.00;;;;;;5006221;28;20106;-87
2022/04/10 05:03:52;;;;;;;3.15;1.80;;;4.20;81.00;;;;;;5034619;28;20094;-87
2022/04/10 05:06:18;;;;;;;3.23;1.90;;;4.20;81.10;;;;;;5019478;28;23310;-87
2022/04/10 05:08:46;;;;;;;5.03;2.03;;;4.20;81.10;;;;;;5026610;28;20039;-87
2022/04/10 05:11:13;;;;;;;4.43;1.92;;;4.20;81.20;;;;;;5066758;28;20084;-87
2022/04/10 05:13:39;;;;;;;3.97;1.90;;;4.20;81.30;;;;;;5030950;28;20050;-87
2022/04/10 05:16:05;;;;;;;4.07;1.95;;;4.20;81.30;;;;;;5049174;28;20027;-86
2022/04/10 05:18:32;;;;;;;4.20;1.90;;;4.20;81.30;;;;;;5020737;28;20120;-86
2022/04/10 05:20:58;;;;;;;4.57;1.90;;;4.10;81.30;;;;;;5035726;28;20032;-86
2022/04/10 05:23:23;;;;;;;5.20;2.10;;;4.10;81.30;;;;;;5037114;28;20020;-86
2022/04/10 05:25:50;;;;;;;4.93;2.00;;;4.10;81.40;;;;;;5039291;28;20055;-87
2022/04/10 05:28:16;;;;;;;4.03;2.10;;;4.10;81.50;;;;;;5059709;28;20713;-86
2022/04/10 05:30:42;;;;;;;5.88;2.03;;;4.10;81.50;;;;;;5037896;28;20473;-86
2022/04/10 05:33:09;;;;;;;4.78;2.22;;;4.10;81.70;;;;;;5035174;28;20103;-87
2022/04/10 05:35:36;;;;;;;4.07;2.03;;;4.10;81.70;;;;;;5035115;28;20123;-86
2022/04/10 05:38:03;;;;;;;4.10;2.10;;;4.10;81.80;;;;;;5019699;28;20020;-86
2022/04/10 05:40:29;;;;;;;4.47;2.03;;;4.10;82.00;;;;;;5037019;28;20231;-86
2022/04/10 05:42:55;;;;;;;4.18;2.22;;;4.10;82.20;;;;;;5031449;28;20048;-86
2022/04/10 05:45:21;;;;;;;4.32;2.05;;;4.10;82.30;;;;;;5041154;28;20408;-86
2022/04/10 05:47:47;;;;;;;3.27;1.87;;;4.20;82.50;;;;;;5040323;28;20025;-86
2022/04/10 05:50:14;;;;;;;3.88;2.00;;;4.20;82.50;;;;;;5051619;28;20141;-86
2022/04/10 05:52:46;;;;;;;3.83;2.03;;;4.20;82.70;;;;;;5050953;28;20493;-86
2022/04/10 05:55:14;;;;;;;3.65;2.00;;;4.20;82.80;;;;;;5038284;28;20122;-86
2022/04/10 05:57:40;;;;;;;4.75;2.10;;;4.30;83.00;;;;;;5018591;28;20366;-86
2022/04/10 06:00:10;;;;;;;4.03;2.00;;;4.30;83.00;;;;;;5027933;28;20718;-87
2022/04/10 06:02:37;;;;;;;3.45;2.05;;;4.40;83.20;;;;;;5031215;28;20075;-87
2022/04/10 06:05:03;;;;;;;4.47;2.20;;;4.40;83.20;;;;;;5017018;28;20035;-87
2022/04/10 06:07:28;;;;;;;4.55;2.22;;;4.40;83.30;;;;;;5034984;28;20123;-87
2022/04/10 06:09:54;;;;;;;4.53;2.10;;;4.50;83.50;;;;;;5040036;28;20403;-86
2022/04/10 06:12:20;;;;;;;5.07;2.37;;;4.60;83.80;;;;;;5019646;28;20504;-87
2022/04/10 06:14:45;;;;;;;5.55;2.30;;;4.60;84.00;;;;;;5051043;28;20146;-86
2022/04/10 06:17:11;;;;;;;4.43;2.30;;;4.70;84.80;;;;;;5019743;28;20339;-86
2022/04/10 06:19:36;;;;;;;3.57;1.97;;;4.70;84.40;;;;;;5038174;28;20484;-86
2022/04/10 06:22:02;;;;;;;6.03;2.75;;;4.90;84.70;;;;;;5025325;28;20016;-86
2022/04/10 06:24:28;;;;;;;4.38;2.40;;;4.90;84.90;;;;;;5051599;28;20344;-86
2022/04/10 06:26:54;;;;;;;4.77;2.60;;;5.00;85.40;;;;;;5016222;28;20236;-87
2022/04/10 06:29:21;;;;;;;5.10;2.85;;;5.20;85.90;;;;;;5017306;28;20233;-87
2022/04/10 06:31:47;;;;;;;5.88;2.70;;;5.30;86.40;;;;;;5033637;28;20091;-86
2022/04/10 06:34:13;;;;;;;6.40;2.70;;;5.50;86.90;;;;;;5017913;28;20029;-86
2022/04/10 06:36:39;;;;;;;5.03;2.78;;;5.80;87.40;;;;;;5035024;28;20029;-87
2022/04/10 06:39:05;;;;;;;5.22;2.70;;;6.00;88.00;;;;;;5047661;28;20489;-87
2022/04/10 06:41:30;;;;;;;5.65;2.88;;;6.20;88.80;;;;;;5022214;28;20041;-87
2022/04/10 06:43:56;;;;;;;4.43;2.43;;;6.60;89.80;;;;;;5016662;28;20125;-87
2022/04/10 06:46:23;;;;;;;4.22;2.50;;;6.90;90.20;;;;;;5022413;28;20252;-87
2022/04/10 06:48:49;;;;;;;5.47;3.03;;;7.20;90.10;;;;;;5044529;28;20060;-87
2022/04/10 06:51:16;;;;;;;4.43;2.42;;;7.60;90.00;;;;;;5024945;28;20164;-87
2022/04/10 06:53:42;;;;;;;3.90;2.53;;;7.90;89.70;;;;;;5035312;28;20029;-88
2022/04/10 06:56:08;;;;;;;4.95;3.20;;;8.20;89.70;;;;;;5017335;28;20012;-87
2022/04/10 06:58:34;;;;;;;4.47;2.80;;;8.40;89.70;;;;;;5037416;28;20017;-87
2022/04/10 07:01:00;;;;;;;6.90;2.80;;;8.70;89.60;;;;;;5022758;28;20040;-88
2022/04/10 07:03:26;;;;;;;4.75;2.70;;;9.00;90.00;;;;;;5045434;28;20028;-88
2022/04/10 07:05:52;;;;;;;4.17;2.57;;;9.30;90.40;;;;;;5018619;28;20028;-88
2022/04/10 07:08:17;;;;;;;6.90;3.00;;;9.70;90.00;;;;;;5042327;28;20047;-88
2022/04/10 07:10:43;;;;;;;5.13;2.90;;;10.00;89.90;;;;;;5037461;28;20028;-88
2022/04/10 07:13:09;;;;;;;4.97;2.80;;;10.30;89.80;;;;;;5020702;28;20531;-88
2022/04/10 07:15:35;;;;;;;5.43;2.85;;;10.60;89.90;;;;;;5036731;28;20033;-88
2022/04/10 07:18:01;;;;;;;4.88;2.80;;;11.10;89.90;;;;;;5019711;28;20492;-88
2022/04/10 07:20:27;;;;;;;4.37;2.73;;;11.50;90.00;;;;;;5005292;28;20340;-88
2022/04/10 07:25:37;;;;;;;4.93;2.70;;;12.30;90.00;;;;;;5036270;28;20179;-88
2022/04/10 07:28:03;;;;;;;4.87;2.67;;;12.90;90.00;;;;;;5015713;28;20025;-88
2022/04/10 07:30:30;;;;;;;4.47;2.67;;;13.40;89.70;;;;;;5012179;28;20051;-88
2022/04/10 07:32:57;;;;;;;5.20;2.95;;;14.00;88.80;;;;;;5033398;28;20052;-88
2022/04/10 07:35:24;;;;;;;6.95;3.38;;;14.40;87.90;;;;;;5029811;28;20763;-88
2022/04/10 07:37:50;;;;;;;5.70;3.40;;;14.90;86.20;;;;;;5036880;28;20527;-88
2022/04/10 07:40:19;;;;;;;4.67;2.77;;;15.40;85.40;;;;;;5020544;28;20458;-88
2022/04/10 07:42:45;;;;;;;5.70;3.22;;;15.80;84.30;;;;;;5016879;28;20123;-88
2022/04/10 07:47:59;;;;;;;4.60;3.05;;;16.50;81.80;;;;;;5043569;28;20112;-88
2022/04/10 07:50:26;;;;;;;4.15;2.72;;;17.00;82.00;;;;;;5049604;28;20119;-88
2022/04/10 07:52:51;;;;;;;3.87;2.60;;;17.30;81.60;;;;;;5022736;28;20431;-88
2022/04/10 07:55:17;;;;;;;4.18;2.60;;;17.60;80.60;;;;;;5042955;28;20036;-88
2022/04/10 07:57:43;;;;;;;4.78;2.70;;;17.90;80.50;;;;;;5027019;28;20471;-88
2022/04/10 08:00:09;;;;;;;4.43;2.70;;;18.20;79.60;;;;;;5024392;28;20136;-88
2022/04/10 08:02:37;;;;;;;4.93;2.58;;;18.60;79.50;;;;;;5047131;28;20036;-88
2022/04/10 08:05:03;;;;;;;3.95;2.42;;;18.90;78.10;;;;;;5058949;28;20064;-88
2022/04/10 08:07:29;;;;;;;4.72;2.13;;;19.20;78.80;;;;;;5022282;28;20159;-88
2022/04/10 08:09:54;;;;;;;3.83;2.10;;;19.50;77.80;;;;;;5052462;28;20048;-88
2022/04/10 08:12:20;;;;;;;4.20;2.33;;;19.70;77.20;;;;;;5055460;28;20602;-88
2022/04/10 08:14:46;;;;;;;4.67;2.40;;;20.00;77.30;;;;;;5026541;28;20136;-88
2022/04/10 08:17:12;;;;;;;4.10;2.38;;;20.30;77.00;;;;;;5028340;28;20496;-88
2022/04/10 08:19:38;;;;;;;4.20;2.30;;;20.50;76.30;;;;;;5056176;28;20024;-88
2022/04/10 08:22:04;;;;;;;3.95;2.15;;;20.80;76.70;;;;;;5029360;28;20016;-89
2022/04/10 08:24:30;;;;;;;4.63;1.88;;;21.00;76.50;;;;;;5031324;28;22140;-88
2022/04/10 08:26:55;;;;;;;2.90;1.57;;;21.30;76.10;;;;;;5058693;28;20012;-89
2022/04/10 08:29:21;;;;;;;2.63;1.55;;;21.50;76.20;;;;;;5041847;28;20360;-89
2022/04/10 08:31:47;;;;;;;2.40;1.70;;;21.90;76.40;;;;;;5017497;28;20020;-89
2022/04/10 08:34:13;;;;;;;2.28;1.50;;;22.20;76.00;;;;;;5027868;28;20058;-89
2022/04/10 08:36:39;;;;;;;1.70;1.50;;;22.50;76.80;;;;;;5031624;28;20087;-87
2022/04/10 08:39:05;;;;;;;1.77;1.30;;;22.80;75.60;;;;;;5025210;28;20020;-87
2022/04/10 08:41:35;;;;;;;2.88;1.30;;;23.10;74.40;;;;;;5024929;28;20394;-87
2022/04/10 08:44:03;;;;;;;1.80;1.30;;;23.40;72.20;;;;;;5054124;28;20030;-86
2022/04/10 08:46:29;;;;;;;1.77;1.33;;;23.60;73.00;;;;;;5047547;28;20115;-89
2022/04/10 08:48:57;;;;;;;2.53;1.30;;;23.80;72.20;;;;;;5032790;28;20103;-86
2022/04/10 08:51:28;;;;;;;2.45;1.15;;;24.00;72.70;;;;;;5034705;28;20726;-85
2022/04/10 08:53:54;;;;;;;2.60;1.45;;;24.20;71.40;;;;;;5025264;28;20465;-84
2022/04/10 08:56:22;;;;;;;2.40;1.30;;;24.40;72.90;;;;;;5035896;28;20122;-84
2022/04/10 08:58:49;;;;;;;2.55;1.50;;;24.60;72.00;;;;;;5031531;28;20104;-84
2022/04/10 09:01:19;;;;;;;2.80;1.50;;;24.80;71.50;;;;;;5039047;28;20420;-85
2022/04/10 09:03:46;;;;;;;3.60;1.60;;;25.00;69.80;;;;;;5046754;28;20036;-87
2022/04/10 09:06:12;;;;;;;2.88;1.60;;;25.10;72.10;;;;;;5060079;28;20039;-88
2022/04/10 09:08:38;;;;;;;3.47;1.57;;;25.30;72.20;;;;;;5038234;28;20071;-85
2022/04/10 09:11:08;;;;;;;2.22;1.58;;;25.50;70.70;;;;;;5036017;28;20025;-85
2022/04/10 09:13:36;;;;;;;2.55;1.60;;;25.60;70.40;;;;;;5034537;28;20159;-84
2022/04/10 09:16:08;;;;;;;2.85;1.60;;;25.80;70.60;;;;;;5031435;28;20033;-83
2022/04/10 09:18:57;;;;;;;2.95;1.52;;;25.80;67.20;;;;;;5030628;28;20029;-84
2022/04/10 09:21:26;;;;;;;2.30;1.60;;;26.00;64.00;;;;;;5057294;28;20021;-84
2022/04/10 09:24:05;;;;;;;2.90;1.42;;;26.20;70.10;;;;;;5079779;28;20044;-84
2022/04/10 09:26:45;;;;;;;5.75;1.80;;;26.40;65.00;;;;;;5061500;28;20056;-85
2022/04/10 09:29:12;;;;;;;3.10;1.70;;;26.60;63.40;;;;;;5063968;28;20468;-83
2022/04/10 09:31:38;;;;;;;2.50;1.60;;;26.80;71.50;;;;;;5057686;28;20040;-84
2022/04/10 09:34:23;;;;;;;1.70;1.20;;;27.00;71.00;;;;;;5035708;28;20024;-86
2022/04/10 09:36:59;;;;;;;2.15;1.65;;;27.20;58.60;;;;;;5041741;28;20021;-86
2022/04/10 09:39:33;;;;;;;2.80;1.60;;;27.40;62.20;;;;;;5022476;28;20381;-85
2022/04/10 09:42:10;;;;;;;2.08;1.80;;;27.50;65.00;;;;;;5020292;28;20082;-85
2022/04/10 09:44:37;;;;;;;2.38;1.60;;;27.80;62.00;;;;;;5054711;28;20090;-83
2022/04/10 09:47:08;;;;;;;3.00;1.40;;;27.90;68.40;;;;;;5021846;28;20555;-82
2022/04/10 09:49:39;;;;;;;2.22;1.65;;;28.00;65.30;;;;;;5054376;28;20020;-83
2022/04/10 09:52:15;;;;;;;2.15;1.48;;;28.10;67.60;;;;;;5011004;28;20252;-83
2022/04/10 09:54:46;;;;;;;2.17;1.50;;;28.20;61.70;;;;;;5048479;28;20036;-82
2022/04/10 09:57:17;;;;;;;2.45;1.77;;;28.30;64.10;;;;;;5027681;28;20723;-82
2022/04/10 09:59:50;;;;;;;2.27;1.50;;;28.40;62.90;;;;;;5035289;28;20686;-85
2022/04/10 10:02:21;;;;;;;2.10;1.70;;;28.50;61.90;;;;;;5050350;28;20028;-83
2022/04/10 10:04:48;;;;;;;2.47;1.92;;;28.50;63.20;;;;;;5033668;28;20181;-82
2022/04/10 10:07:18;;;;;;;3.75;1.67;;;28.60;64.40;;;;;;5034250;28;20067;-82
2022/04/10 10:09:46;;;;;;;2.80;1.50;;;28.60;64.40;;;;;;5052527;28;20021;-82
2022/04/10 10:12:13;;;;;;;2.23;1.40;;;28.50;63.70;;;;;;5033112;28;20565;-83
2022/04/10 10:14:39;;;;;;;2.42;1.60;;;28.30;62.70;;;;;;5056423;28;20136;-85
2022/04/10 10:17:06;;;;;;;2.60;1.63;;;28.20;62.20;;;;;;5050862;28;20078;-85
2022/04/10 10:19:34;;;;;;;3.67;1.80;;;28.00;61.80;;;;;;5045546;28;20052;-84
2022/04/10 10:22:01;;;;;;;2.03;1.65;;;27.90;62.70;;;;;;5029172;28;20652;-86
2022/04/10 10:24:34;;;;;;;2.93;1.80;;;28.10;64.30;;;;;;5037520;28;20511;-86
2022/04/10 10:27:19;;;;;;;2.33;1.80;;;28.20;61.30;;;;;;5035108;28;20267;-85
2022/04/10 10:30:02;;;;;;;2.97;1.80;;;28.30;55.80;;;;;;5038731;28;20151;-84
2022/04/10 10:32:44;;;;;;;2.10;1.70;;;28.30;55.70;;;;;;5034763;28;20032;-84
2022/04/10 10:35:26;;;;;;;2.53;1.60;;;28.20;54.90;;;;;;5040914;28;20082;-84
2022/04/10 10:37:53;;;;;;;2.50;1.70;;;28.20;57.00;;;;;;5039193;28;20051;-83
2022/04/10 10:40:20;;;;;;;1.88;1.60;;;28.20;60.00;;;;;;5039228;28;20012;-84
2022/04/10 10:42:49;;;;;;;2.28;1.52;;;28.10;59.30;;;;;;5033878;28;20107;-85
2022/04/10 10:45:36;;;;;;;2.08;1.50;;;27.90;55.70;;;;;;5040589;28;20115;-85
2022/04/10 10:48:30;;;;;;;2.42;1.52;;;27.60;50.20;;;;;;5053703;28;20673;-84
2022/04/10 10:51:00;;;;;;;2.73;1.40;;;27.30;49.90;;;;;;5056996;28;20033;-84
2022/04/10 10:53:52;;;;;;;2.45;1.50;;;26.90;53.20;;;;;;5030267;28;20032;-83
2022/04/10 10:56:17;;;;;;;2.13;1.70;;;26.40;50.10;;;;;;5041219;28;20119;-84
2022/04/10 10:58:44;;;;;;;2.37;1.70;;;26.00;53.20;;;;;;5036088;28;20128;-85
2022/04/10 11:01:20;;;;;;;2.65;1.70;;;25.50;53.10;;;;;;5014273;28;20362;-84
2022/04/10 11:04:05;;;;;;;2.08;1.58;;;25.20;52.00;;;;;;5053736;28;20103;-85
2022/04/10 11:06:42;;;;;;;2.75;1.60;;;25.20;50.70;;;;;;5049149;28;20028;-83
2022/04/10 11:09:22;;;;;;;2.22;1.60;;;25.40;58.10;;;;;;5047481;28;20028;-84
2022/04/10 11:11:48;;;;;;;3.00;1.40;;;25.80;54.50;;;;;;5069332;28;20056;-83
2022/04/10 11:14:40;;;;;;;1.98;1.38;;;26.20;61.30;;;;;;5054575;28;20283;-83
2022/04/10 11:17:16;;;;;;;2.85;1.50;;;26.60;52.30;;;;;;5019152;28;20020;-83
2022/04/10 11:19:44;;;;;;;1.95;1.40;;;27.10;53.40;;;;;;5043651;28;20106;-83
2022/04/10 11:22:14;;;;;;;2.00;1.50;;;27.40;58.50;;;;;;5028697;28;21501;-83
2022/04/10 11:24:42;;;;;;;2.20;1.40;;;27.70;56.80;;;;;;4999521;28;20667;-84
2022/04/10 11:27:13;;;;;;;2.35;1.40;;;27.90;58.00;;;;;;5065564;28;20039;-84
2022/04/10 11:29:50;;;;;;;1.70;1.40;;;28.10;54.90;;;;;;5035639;28;20032;-83
2022/04/10 11:32:17;;;;;;;2.63;1.50;;;28.30;55.10;;;;;;5039477;28;20036;-84
2022/04/10 11:34:43;;;;;;;2.00;1.50;;;28.50;54.40;;;;;;5044156;28;20028;-83
2022/04/10 11:37:21;;;;;;;2.10;1.50;;;28.40;54.10;;;;;;5048667;28;20086;-84
2022/04/10 11:39:48;;;;;;;2.17;1.42;;;28.20;49.80;;;;;;5029870;28;20481;-84
2022/04/10 11:42:15;;;;;;;2.42;1.48;;;28.10;52.80;;;;;;5041989;28;20532;-85
2022/04/10 11:44:41;;;;;;;3.00;1.40;;;28.00;53.60;;;;;;5050700;28;20456;-84
2022/04/10 11:47:10;;;;;;;2.58;1.42;;;28.20;55.50;;;;;;5026616;28;20275;-84
2022/04/10 11:49:37;;;;;;;2.03;1.30;;;28.40;55.80;;;;;;5040611;28;20036;-85
2022/04/10 11:52:03;;;;;;;2.40;1.30;;;28.50;53.70;;;;;;5027172;28;20052;-85
2022/04/10 11:54:33;;;;;;;2.30;1.30;;;28.50;50.80;;;;;;5041050;28;20016;-86
2022/04/10 11:57:01;;;;;;;2.00;1.30;;;28.20;49.10;;;;;;5041556;28;20055;-86
2022/04/10 11:59:35;;;;;;;1.85;1.50;;;27.90;48.60;;;;;;5061279;28;20024;-86
2022/04/10 12:02:01;;;;;;;2.25;1.35;;;27.50;44.70;;;;;;5029939;28;20387;-85
2022/04/10 12:04:28;;;;;;;2.10;1.45;;;27.20;49.40;;;;;;5041348;28;20361;-84
2022/04/10 12:07:17;;;;;;;1.92;1.38;;;27.00;49.10;;;;;;5044984;28;20064;-84
2022/04/10 12:09:45;;;;;;;1.80;1.30;;;26.70;44.50;;;;;;5033146;28;20043;-85
2022/04/10 12:12:11;;;;;;;2.65;1.40;;;26.40;47.80;;;;;;5038633;28;20242;-85
2022/04/10 12:14:37;;;;;;;1.80;1.30;;;26.00;47.40;;;;;;5056435;28;20468;-85
2022/04/10 12:17:09;;;;;;;2.60;1.20;;;25.60;47.50;;;;;;5026309;28;20463;-85
2022/04/10 12:19:35;;;;;;;4.18;1.88;;;25.40;48.50;;;;;;5022355;28;20086;-84
2022/04/10 12:22:09;;;;;;;2.03;1.10;;;25.30;50.10;;;;;;5027342;28;20436;-85
2022/04/10 12:24:37;;;;;;;35.60;3.88;;;25.50;49.80;;;;;;5039503;28;20036;-86
2022/04/10 12:27:07;;;;;;;52.60;6.47;;;25.70;53.30;;;;;;5036093;28;20253;-88
2022/04/10 12:29:36;;;;;;;6.03;1.58;;;26.10;52.00;;;;;;5042100;28;20065;-88
2022/04/10 12:32:04;;;;;;;92.88;8.30;;;26.50;52.90;;;;;;5047441;28;20270;-87
2022/04/10 12:34:34;;;;;;;6.07;1.67;;;26.80;53.90;;;;;;5021724;28;20029;-87
2022/04/10 12:37:12;;;;;;;105.38;8.35;;;27.10;51.80;;;;;;5028221;28;20356;-87
2022/04/10 12:39:38;;;;;;;18.80;2.22;;;27.30;48.10;;;;;;5025123;28;20579;-87
2022/04/10 12:42:08;;;;;;;5.13;1.60;;;27.30;50.90;;;;;;5039450;28;20252;-87
2022/04/10 12:44:39;;;;;;;3.85;1.20;;;27.20;48.00;;;;;;5040566;28;20025;-87
2022/04/10 12:47:08;;;;;;;3.27;1.30;;;26.90;46.20;;;;;;5057809;28;20226;-87
2022/04/10 12:49:39;;;;;;;2.03;1.20;;;26.60;47.20;;;;;;5037148;28;20024;-87
2022/04/10 12:52:05;;;;;;;2.58;1.30;;;26.30;45.00;;;;;;5024117;28;20020;-87
2022/04/10 12:54:38;;;;;;;3.97;1.40;;;26.10;47.20;;;;;;5029338;28;20124;-87
2022/04/10 12:57:09;;;;;;;4.55;1.50;;;25.90;46.90;;;;;;5023556;28;20195;-87
2022/04/10 12:59:38;;;;;;;3.70;1.50;;;25.70;45.70;;;;;;5036876;28;20562;-85
2022/04/10 13:02:09;;;;;;;2.15;1.40;;;25.50;47.60;;;;;;5050467;28;20131;-84